Time;durP1;ratioP1;P1;durP2;ratioP2;P2;SDS_P1;SDS_P2;PMS_P1;PMS_P2;Temp;Humidity;BMP_temperature;BMP_pressure;BME280_temperature;BME280_humidity;BME280_pressure;Samples;Min_cycle;Max_cycle;Signal;HPM_P1;HPM_P2
2023/08/11 00:01:05;;;;;;;3.25;2.30;;;;;;;20.54;59.89;101943.69;5060906;28;20044;-61
2023/08/11 00:03:34;;;;;;;4.88;2.60;;;;;;;20.53;59.89;101942.06;5061892;28;20037;-61
2023/08/11 00:06:02;;;;;;;5.05;2.67;;;;;;;20.51;59.91;101941.50;5043240;28;20078;-63
2023/08/11 00:08:31;;;;;;;5.15;2.80;;;;;;;20.50;60.07;101948.03;5042200;28;20053;-61
2023/08/11 00:10:59;;;;;;;2.45;2.17;;;;;;;20.48;60.15;101943.91;5042242;28;20049;-62
2023/08/11 00:13:27;;;;;;;3.90;2.55;;;;;;;20.46;59.93;101953.19;5051912;28;20068;-61
2023/08/11 00:15:55;;;;;;;4.45;2.72;;;;;;;20.45;59.82;101945.25;5061596;28;20049;-61
2023/08/11 00:18:23;;;;;;;4.32;2.40;;;;;;;20.43;60.06;101942.78;5047991;28;20462;-62
2023/08/11 00:20:51;;;;;;;4.40;2.65;;;;;;;20.42;60.16;101943.88;5042078;28;20057;-62
2023/08/11 00:23:19;;;;;;;3.35;2.47;;;;;;;20.41;60.13;101938.69;5042493;28;20098;-61
2023/08/11 00:25:48;;;;;;;3.17;2.28;;;;;;;20.40;60.11;101943.31;5054019;28;20049;-61
2023/08/11 00:28:16;;;;;;;5.10;2.30;;;;;;;20.39;60.09;101940.84;5114469;27;20058;-62
2023/08/11 00:30:43;;;;;;;5.90;2.60;;;;;;;20.38;60.10;101933.72;5141595;27;20055;-61
2023/08/11 00:33:11;;;;;;;3.83;2.17;;;;;;;20.36;60.13;101939.44;5059322;28;20045;-62
2023/08/11 00:35:42;;;;;;;4.85;2.40;;;;;;;20.33;60.23;101945.41;5065488;28;20049;-62
2023/08/11 00:38:10;;;;;;;3.03;2.20;;;;;;;20.32;60.00;101934.75;5049226;28;20060;-61
2023/08/11 00:40:38;;;;;;;5.32;2.65;;;;;;;20.31;60.06;101935.84;5045165;28;20061;-61
2023/08/11 00:43:07;;;;;;;6.88;2.90;;;;;;;20.29;60.10;101936.09;5045237;28;20045;-61
2023/08/11 00:45:34;;;;;;;5.95;2.67;;;;;;;20.28;60.00;101930.91;5044920;28;20452;-62
2023/08/11 00:48:02;;;;;;;3.78;2.10;;;;;;;20.28;60.10;101934.44;5059552;28;20045;-62
2023/08/11 00:50:31;;;;;;;4.53;2.67;;;;;;;20.26;60.06;101925.69;5044968;28;20132;-61
2023/08/11 00:53:01;;;;;;;4.28;2.50;;;;;;;20.26;59.95;101922.97;5044832;28;20046;-61
2023/08/11 00:55:29;;;;;;;5.13;2.60;;;;;;;20.25;60.02;101917.75;5047962;28;20268;-61
2023/08/11 00:57:57;;;;;;;5.75;2.63;;;;;;;20.23;60.06;101911.75;5044881;28;20435;-61
2023/08/11 01:00:28;;;;;;;4.57;2.80;;;;;;;20.21;60.27;101914.72;5044918;28;20057;-61
2023/08/11 01:02:56;;;;;;;5.50;2.72;;;;;;;20.20;60.11;101907.63;5044726;28;20061;-61
2023/08/11 01:05:25;;;;;;;3.25;2.53;;;;;;;20.19;60.13;101913.34;5045051;28;20075;-62
2023/08/11 01:08:03;;;;;;;4.15;2.67;;;;;;;20.17;60.19;101905.41;5044547;28;20076;-61
2023/08/11 01:10:40;;;;;;;4.75;2.75;;;;;;;20.16;60.04;101898.31;5044876;28;20049;-61
2023/08/11 01:13:17;;;;;;;3.92;2.53;;;;;;;20.16;60.27;101901.03;5044684;28;20050;-61
2023/08/11 01:15:52;;;;;;;4.63;2.75;;;;;;;20.14;60.19;101906.75;5044569;28;20062;-62
2023/08/11 01:18:20;;;;;;;6.05;2.63;;;;;;;20.13;60.21;101907.84;5044197;28;20078;-61
2023/08/11 01:20:52;;;;;;;4.82;2.97;;;;;;;20.13;60.38;101904.28;5044647;28;20452;-61
2023/08/11 01:23:22;;;;;;;5.22;2.90;;;;;;;20.10;60.21;101896.63;5044837;27;20068;-61
2023/08/11 01:25:51;;;;;;;4.03;2.90;;;;;;;20.08;60.39;101896.88;5046864;28;20038;-61
2023/08/11 01:28:19;;;;;;;5.60;3.25;;;;;;;20.08;60.43;101894.16;5117217;27;20051;-61
2023/08/11 01:30:46;;;;;;;4.93;3.13;;;;;;;20.06;60.32;101896.31;5088498;27;20052;-61
2023/08/11 01:33:15;;;;;;;6.38;2.80;;;;;;;20.05;60.27;101893.84;5050390;28;20064;-61
2023/08/11 01:35:42;;;;;;;4.82;3.28;;;;;;;20.02;60.29;101889.72;5064557;28;20049;-61
2023/08/11 01:38:11;;;;;;;4.35;2.75;;;;;;;20.02;60.38;101891.63;5053925;28;20077;-61
2023/08/11 01:40:40;;;;;;;5.45;3.30;;;;;;;20.00;60.32;101888.34;5063700;28;20070;-61
2023/08/11 01:43:11;;;;;;;3.78;3.00;;;;;;;19.98;60.35;101902.25;5055276;28;20108;-61
2023/08/11 01:45:39;;;;;;;4.32;3.17;;;;;;;19.96;60.34;101893.50;5044282;28;20057;-61
2023/08/11 01:48:10;;;;;;;5.95;3.33;;;;;;;19.95;60.41;101891.03;5052253;28;20049;-62
2023/08/11 01:50:38;;;;;;;3.97;3.10;;;;;;;19.91;60.44;101885.25;5044155;28;20053;-62
2023/08/11 01:53:07;;;;;;;4.03;2.92;;;;;;;19.93;60.52;101902.19;5043948;28;20080;-61
2023/08/11 01:55:36;;;;;;;4.45;3.08;;;;;;;19.91;60.35;101890.72;5055236;28;20059;-62
2023/08/11 01:58:06;;;;;;;8.65;3.42;;;;;;;19.90;60.51;101890.97;5063882;28;20049;-62
2023/08/11 02:00:34;;;;;;;5.28;3.13;;;;;;;19.88;60.49;101891.22;5049705;28;20109;-62
2023/08/11 02:03:02;;;;;;;4.72;2.92;;;;;;;19.82;60.53;101879.44;5043573;28;20053;-62
2023/08/11 02:05:30;;;;;;;5.10;3.20;;;;;;;19.86;60.40;101881.66;5043953;28;20117;-62
2023/08/11 02:07:59;;;;;;;10.98;3.63;;;;;;;19.84;60.60;101881.91;5057002;28;20052;-62
2023/08/11 02:10:27;;;;;;;7.93;3.38;;;;;;;19.83;60.48;101880.28;5063973;28;20049;-62
2023/08/11 02:12:55;;;;;;;5.43;3.10;;;;;;;19.80;60.52;101884.34;5062111;28;20049;-61
2023/08/11 02:15:25;;;;;;;5.13;3.60;;;;;;;19.79;60.59;101873.69;5063388;28;20056;-62
2023/08/11 02:17:52;;;;;;;4.82;3.60;;;;;;;19.77;60.51;101876.66;5063224;28;20053;-62
2023/08/11 02:20:21;;;;;;;4.35;3.25;;;;;;;19.76;60.54;101871.47;5048441;28;20071;-62
2023/08/11 02:22:51;;;;;;;5.18;3.78;;;;;;;19.75;60.51;101875.28;5043876;28;20056;-61
2023/08/11 02:25:20;;;;;;;3.88;2.95;;;;;;;19.72;60.64;101871.16;5043659;28;20049;-61
2023/08/11 02:27:49;;;;;;;8.43;3.60;;;;;;;19.72;60.62;101875.81;5044463;28;20101;-61
2023/08/11 02:30:18;;;;;;;7.03;3.53;;;;;;;19.71;60.62;101868.69;5063491;28;20049;-61
2023/08/11 02:32:47;;;;;;;4.47;3.40;;;;;;;19.69;60.61;101874.41;5046997;28;20215;-62
2023/08/11 02:35:17;;;;;;;6.82;3.40;;;;;;;19.68;60.55;101870.03;5063559;28;20044;-61
2023/08/11 02:37:45;;;;;;;8.88;4.18;;;;;;;19.66;60.46;101872.19;5115331;27;20054;-61
2023/08/11 02:40:13;;;;;;;5.63;3.08;;;;;;;19.66;60.59;101888.56;5147771;27;20082;-61
2023/08/11 02:42:48;;;;;;;7.25;3.70;;;;;;;19.65;60.78;101888.81;5110492;27;20053;-62
2023/08/11 02:45:15;;;;;;;7.93;3.67;;;;;;;19.64;60.63;101887.16;5043483;28;20074;-62
2023/08/11 02:47:43;;;;;;;4.70;3.38;;;;;;;19.63;60.61;101888.25;5042691;28;20053;-62
2023/08/11 02:50:13;;;;;;;6.00;3.67;;;;;;;19.61;60.90;101890.41;5043097;28;20054;-61
2023/08/11 02:52:41;;;;;;;5.13;3.30;;;;;;;19.59;60.65;101887.94;5052919;28;20049;-61
2023/08/11 02:55:11;;;;;;;5.70;3.97;;;;;;;19.59;60.84;101887.13;5050873;28;20037;-62
2023/08/11 02:57:39;;;;;;;4.85;3.30;;;;;;;19.57;60.63;101884.66;5054061;28;20060;-62
2023/08/11 03:00:12;;;;;;;4.78;3.13;;;;;;;19.56;60.62;101882.19;5043046;28;20049;-61
2023/08/11 03:02:41;;;;;;;5.43;3.40;;;;;;;19.54;60.81;101885.16;5039182;28;20056;-61
2023/08/11 03:05:11;;;;;;;9.50;3.97;;;;;;;19.53;60.69;101883.50;5063036;28;20065;-61
2023/08/11 03:07:40;;;;;;;5.13;3.83;;;;;;;19.52;60.97;101878.31;5058397;28;20053;-61
2023/08/11 03:10:10;;;;;;;6.15;3.58;;;;;;;19.52;60.83;101878.31;5043166;28;20075;-61
2023/08/11 03:12:38;;;;;;;4.95;4.05;;;;;;;19.46;60.83;101872.78;5049148;28;20053;-62
2023/08/11 03:15:07;;;;;;;6.63;3.50;;;;;;;19.48;60.99;101877.97;5062739;28;20052;-61
2023/08/11 03:17:36;;;;;;;6.32;4.03;;;;;;;19.47;60.67;101879.06;5055587;28;20058;-62
2023/08/11 03:20:07;;;;;;;6.85;4.25;;;;;;;19.46;60.97;101871.94;5042901;28;20051;-61
2023/08/11 03:22:35;;;;;;;7.20;3.63;;;;;;;19.44;60.78;101874.13;5042771;28;20147;-61
2023/08/11 03:25:07;;;;;;;4.72;3.35;;;;;;;19.42;60.88;101874.38;5043036;28;20049;-61
2023/08/11 03:27:35;;;;;;;8.30;3.95;;;;;;;19.42;60.94;101877.09;5083026;27;20047;-62
2023/08/11 03:30:03;;;;;;;7.38;3.80;;;;;;;19.41;60.85;101877.34;5062705;27;20060;-61
2023/08/11 03:32:31;;;;;;;6.30;4.07;;;;;;;19.40;60.91;101867.53;5042512;28;20094;-62
2023/08/11 03:34:59;;;;;;;6.10;3.72;;;;;;;19.38;60.86;101873.22;5062620;28;20049;-61
2023/08/11 03:37:27;;;;;;;6.40;3.38;;;;;;;19.36;61.07;101874.56;5052292;28;20072;-61
2023/08/11 03:39:54;;;;;;;8.95;3.60;;;;;;;19.35;61.09;101865.56;5059193;28;20048;-61
2023/08/11 03:42:24;;;;;;;7.80;4.25;;;;;;;19.35;61.14;101872.91;5062395;28;20053;-61
2023/08/11 03:44:52;;;;;;;7.45;3.78;;;;;;;19.32;61.06;101863.34;5058043;28;20071;-61
2023/08/11 03:47:20;;;;;;;5.55;3.58;;;;;;;19.31;60.99;101864.44;5042049;28;20049;-61
2023/08/11 03:49:48;;;;;;;5.53;3.70;;;;;;;19.30;61.13;101865.50;5030304;28;20045;-61
2023/08/11 03:52:16;;;;;;;7.20;3.65;;;;;;;19.28;61.19;101870.38;5042466;28;20054;-62
2023/08/11 03:54:44;;;;;;;6.78;3.53;;;;;;;19.27;61.29;101860.56;5045933;28;20550;-62
2023/08/11 03:57:12;;;;;;;7.20;3.92;;;;;;;19.25;61.12;101868.16;5055167;28;20046;-61
2023/08/11 03:59:42;;;;;;;7.25;3.95;;;;;;;19.25;61.15;101864.63;5042504;28;20077;-61
2023/08/11 04:02:09;;;;;;;9.93;4.60;;;;;;;19.24;61.22;101865.69;5047215;28;20079;-61
2023/08/11 04:04:38;;;;;;;5.20;4.25;;;;;;;19.22;61.20;101873.31;5065851;28;20070;-61
2023/08/11 04:07:06;;;;;;;8.60;3.72;;;;;;;19.20;61.29;101865.38;5065460;28;20383;-60
2023/08/11 04:09:34;;;;;;;5.90;3.90;;;;;;;19.18;61.11;101865.63;5065647;28;20074;-61
2023/08/11 04:12:02;;;;;;;5.53;3.85;;;;;;;19.17;61.11;101869.44;5063585;28;20065;-62
2023/08/11 04:14:30;;;;;;;6.43;4.22;;;;;;;19.16;61.20;101866.97;5064955;28;20049;-62
2023/08/11 04:17:00;;;;;;;5.20;3.38;;;;;;;19.16;61.24;101869.69;5064639;28;20461;-62
2023/08/11 04:19:28;;;;;;;6.28;4.30;;;;;;;19.14;61.40;101869.13;5045229;28;20053;-62
2023/08/11 04:21:56;;;;;;;5.05;3.80;;;;;;;19.13;61.36;101864.75;5045156;28;20049;-62
2023/08/11 04:24:24;;;;;;;7.22;3.95;;;;;;;19.11;61.54;101862.28;5059178;27;20114;-62
2023/08/11 04:26:51;;;;;;;6.60;5.00;;;;;;;19.10;61.48;101873.44;5055000;27;20049;-61
2023/08/11 04:29:19;;;;;;;9.38;4.43;;;;;;;19.09;61.50;101869.06;5045284;28;20101;-61
2023/08/11 04:31:47;;;;;;;9.93;5.07;;;;;;;19.08;61.64;101870.13;5045296;28;20050;-61
2023/08/11 04:34:17;;;;;;;5.47;3.85;;;;;;;19.07;61.44;101873.94;5059117;28;20053;-62
2023/08/11 04:36:46;;;;;;;8.10;4.28;;;;;;;19.06;61.34;101864.97;5083188;27;20043;-61
2023/08/11 04:39:14;;;;;;;9.38;4.00;;;;;;;19.04;61.59;101875.31;5150103;27;20047;-62
2023/08/11 04:41:42;;;;;;;8.55;3.97;;;;;;;19.03;61.60;101870.94;5068673;27;20112;-60
2023/08/11 04:44:09;;;;;;;7.55;4.20;;;;;;;19.02;61.48;101868.47;5064961;28;20070;-61
2023/08/11 04:46:37;;;;;;;6.35;4.13;;;;;;;19.02;61.52;101872.00;5064818;28;20053;-61
2023/08/11 04:49:05;;;;;;;7.05;4.45;;;;;;;19.01;61.61;101869.53;5056634;28;20048;-61
2023/08/11 04:51:34;;;;;;;9.32;4.45;;;;;;;18.99;61.61;101856.16;5044853;28;20529;-62
2023/08/11 04:54:03;;;;;;;6.85;4.45;;;;;;;18.99;61.62;101856.16;5044735;28;20049;-62
2023/08/11 04:56:30;;;;;;;7.55;4.28;;;;;;;18.98;61.64;101848.25;5064108;28;20081;-61
2023/08/11 04:58:58;;;;;;;7.13;4.55;;;;;;;18.97;61.48;101852.88;5065034;28;20133;-62
2023/08/11 05:01:26;;;;;;;6.53;4.43;;;;;;;18.96;61.78;101840.31;5064327;28;20048;-61
2023/08/11 05:03:54;;;;;;;8.88;4.47;;;;;;;18.95;61.63;101846.84;5063939;28;20053;-61
2023/08/11 05:06:22;;;;;;;9.77;4.32;;;;;;;18.93;61.60;101846.28;5054435;28;20050;-61
2023/08/11 05:08:51;;;;;;;8.77;4.40;;;;;;;18.93;61.75;101846.28;5044645;28;20049;-61
2023/08/11 05:11:19;;;;;;;5.03;3.80;;;;;;;18.93;61.77;101845.47;5044747;28;20075;-62
2023/08/11 05:13:47;;;;;;;6.80;3.90;;;;;;;18.92;61.80;101850.09;5044171;28;20041;-61
2023/08/11 05:16:15;;;;;;;7.18;4.60;;;;;;;18.90;61.68;101844.06;5060985;28;20053;-61
2023/08/11 05:18:42;;;;;;;7.05;3.90;;;;;;;18.90;61.74;101844.06;5064087;28;20136;-61
2023/08/11 05:21:11;;;;;;;8.30;4.15;;;;;;;18.89;61.72;101845.16;5064613;28;20049;-61
2023/08/11 05:23:39;;;;;;;8.98;4.90;;;;;;;18.89;61.68;101847.88;5053786;28;20106;-61
2023/08/11 05:26:08;;;;;;;7.97;3.90;;;;;;;18.88;61.50;101842.66;5043829;28;20067;-62
2023/08/11 05:28:36;;;;;;;5.75;3.45;;;;;;;18.86;61.61;101845.66;5041998;28;20060;-60
2023/08/11 05:31:05;;;;;;;5.57;3.45;;;;;;;18.87;61.73;101846.47;5044501;28;20478;-62
2023/08/11 05:33:33;;;;;;;6.53;4.10;;;;;;;18.86;61.84;101842.94;5050836;28;20049;-62
2023/08/11 05:36:01;;;;;;;5.80;3.83;;;;;;;18.85;61.59;101833.94;5044567;28;20105;-62
2023/08/11 05:38:29;;;;;;;10.50;4.10;;;;;;;18.85;61.58;101836.66;5141765;27;20071;-62
2023/08/11 05:40:57;;;;;;;7.40;3.88;;;;;;;18.88;61.66;101839.94;5147293;27;20084;-62
2023/08/11 05:43:26;;;;;;;7.13;3.53;;;;;;;18.88;61.63;101835.31;5063454;28;20504;-62
2023/08/11 05:45:54;;;;;;;6.03;3.58;;;;;;;18.88;61.78;101832.59;5049520;28;20052;-61
2023/08/11 05:48:21;;;;;;;6.30;4.32;;;;;;;18.90;61.71;101837.78;5043622;28;20045;-62
2023/08/11 05:50:50;;;;;;;7.43;4.25;;;;;;;18.90;61.67;101835.06;5046234;28;20073;-61
2023/08/11 05:53:18;;;;;;;5.30;3.95;;;;;;;18.90;61.58;101835.91;5058007;28;20055;-62
2023/08/11 05:55:45;;;;;;;6.43;3.95;;;;;;;18.90;61.71;101833.16;5057024;28;20041;-62
2023/08/11 05:58:13;;;;;;;6.35;3.30;;;;;;;18.90;61.62;101835.91;5064125;28;20080;-62
2023/08/11 06:00:42;;;;;;;6.68;3.78;;;;;;;18.91;61.63;101829.38;5059795;28;20061;-62
2023/08/11 06:03:11;;;;;;;7.15;3.92;;;;;;;18.92;61.79;101838.38;5043558;28;20053;-61
2023/08/11 06:05:39;;;;;;;6.25;3.58;;;;;;;18.93;61.66;101834.56;5043807;28;20046;-61
2023/08/11 06:08:07;;;;;;;8.75;3.92;;;;;;;18.92;61.67;101836.47;5049510;28;20037;-61
2023/08/11 06:10:35;;;;;;;6.80;3.75;;;;;;;18.91;61.80;101832.09;5063930;28;20053;-61
2023/08/11 06:13:03;;;;;;;6.88;3.67;;;;;;;18.95;61.61;101840.59;5063774;28;20051;-62
2023/08/11 06:15:31;;;;;;;7.22;3.50;;;;;;;18.96;61.80;101839.50;5051715;28;20050;-62
2023/08/11 06:18:00;;;;;;;9.02;3.58;;;;;;;18.98;61.44;101838.19;5043179;28;20050;-62
2023/08/11 06:20:28;;;;;;;5.50;3.63;;;;;;;19.00;61.64;101841.47;5043767;28;20073;-62
2023/08/11 06:23:08;;;;;;;7.30;3.58;;;;;;;19.03;61.53;101835.50;5044178;28;20137;-62
2023/08/11 06:25:36;;;;;;;5.65;3.50;;;;;;;19.05;61.63;101836.09;5046568;28;20211;-62
2023/08/11 06:28:05;;;;;;;6.03;3.15;;;;;;;19.06;61.72;101843.19;5050170;27;20064;-61
2023/08/11 06:30:33;;;;;;;5.32;3.25;;;;;;;19.10;61.90;101838.84;5042965;28;20041;-61
2023/08/11 06:33:02;;;;;;;6.15;3.92;;;;;;;19.12;61.96;101842.13;5047661;28;20072;-62
2023/08/11 06:35:31;;;;;;;8.45;3.53;;;;;;;19.15;61.92;101844.34;5063483;28;20051;-62
2023/08/11 06:37:59;;;;;;;6.32;3.25;;;;;;;19.17;62.08;101842.19;5053015;28;20044;-62
2023/08/11 06:40:27;;;;;;;5.97;3.25;;;;;;;19.19;61.89;101847.38;5063498;28;20053;-62
2023/08/11 06:42:55;;;;;;;6.40;3.47;;;;;;;19.21;62.10;101850.69;5061193;28;20055;-61
2023/08/11 06:45:22;;;;;;;7.00;3.28;;;;;;;19.24;62.02;101846.63;5061122;28;20049;-62
2023/08/11 06:47:51;;;;;;;7.85;3.50;;;;;;;19.26;62.22;101848.00;5044722;28;20121;-61
2023/08/11 06:50:20;;;;;;;6.63;3.40;;;;;;;19.30;62.16;101848.31;5051274;28;20088;-61
2023/08/11 06:52:48;;;;;;;9.32;3.75;;;;;;;19.33;62.05;101851.38;5042779;28;20057;-62
2023/08/11 06:55:16;;;;;;;7.05;3.40;;;;;;;19.37;62.13;101854.41;5044118;28;20110;-61
2023/08/11 06:57:44;;;;;;;6.10;3.17;;;;;;;19.41;62.07;101861.81;5042971;28;20465;-61
2023/08/11 07:00:12;;;;;;;8.13;3.53;;;;;;;19.45;62.15;101862.94;5043284;28;20057;-61
2023/08/11 07:02:40;;;;;;;8.90;2.92;;;;;;;19.48;62.31;101865.16;5042944;28;20053;-61
2023/08/11 07:05:08;;;;;;;6.57;3.20;;;;;;;19.53;62.28;101855.41;5063113;28;20359;-61
2023/08/11 07:07:37;;;;;;;7.50;3.22;;;;;;;19.56;62.28;101863.09;5055916;28;20052;-61
2023/08/11 07:10:06;;;;;;;6.38;3.47;;;;;;;19.57;62.26;101853.81;5043061;28;20078;-62
2023/08/11 07:12:34;;;;;;;6.50;3.42;;;;;;;19.58;62.14;101852.75;5042770;28;20064;-61
2023/08/11 07:15:03;;;;;;;5.57;2.80;;;;;;;19.62;62.31;101857.44;5055454;28;20045;-61
2023/08/11 07:17:30;;;;;;;9.43;3.50;;;;;;;19.64;62.12;101863.44;5056951;28;20045;-61
2023/08/11 07:19:58;;;;;;;6.80;3.10;;;;;;;19.67;62.20;101862.94;5042640;28;20113;-61
2023/08/11 07:22:26;;;;;;;8.45;3.42;;;;;;;19.69;62.23;101868.13;5042663;28;20106;-61
2023/08/11 07:24:55;;;;;;;5.80;3.33;;;;;;;19.70;62.29;101865.16;5043020;28;20065;-60
2023/08/11 07:27:23;;;;;;;6.72;3.22;;;;;;;19.72;62.31;101868.44;5041913;28;20045;-61
2023/08/11 07:29:51;;;;;;;5.72;3.30;;;;;;;19.75;62.49;101872.56;5042744;28;20113;-61
2023/08/11 07:32:19;;;;;;;4.80;3.05;;;;;;;19.76;62.41;101872.31;5042521;28;20046;-61
2023/08/11 07:34:47;;;;;;;6.68;3.28;;;;;;;19.78;62.53;101872.03;5062469;28;20067;-61
2023/08/11 07:37:14;;;;;;;7.05;3.17;;;;;;;19.79;62.47;101871.78;5053555;28;20042;-61
2023/08/11 07:39:43;;;;;;;7.05;3.20;;;;;;;19.80;62.59;101869.88;5028394;28;20145;-62
2023/08/11 07:42:12;;;;;;;4.90;2.75;;;;;;;19.83;62.65;101870.19;5032674;28;20041;-61
2023/08/11 07:44:40;;;;;;;5.07;3.30;;;;;;;19.83;62.63;101867.47;5062479;28;20049;-61
2023/08/11 07:47:08;;;;;;;4.65;3.17;;;;;;;19.84;62.73;101865.56;5062085;28;20052;-59
2023/08/11 07:49:36;;;;;;;4.78;3.05;;;;;;;19.85;62.87;101866.38;5055056;28;20045;-61
2023/08/11 07:52:04;;;;;;;8.27;3.22;;;;;;;19.86;62.91;101871.56;5042421;28;20094;-61
2023/08/11 07:54:32;;;;;;;5.63;3.15;;;;;;;19.87;62.91;101873.22;5042388;28;20050;-61
2023/08/11 07:57:00;;;;;;;6.15;3.30;;;;;;;19.89;62.99;101881.97;5042353;28;20135;-60
2023/08/11 07:59:29;;;;;;;3.75;2.85;;;;;;;19.90;63.08;101874.59;5042513;28;20098;-61
2023/08/11 08:01:57;;;;;;;4.57;3.00;;;;;;;19.93;63.21;101874.09;5042239;28;20113;-61
2023/08/11 08:04:25;;;;;;;7.55;3.15;;;;;;;19.93;63.22;101874.91;5041962;28;20112;-62
2023/08/11 08:06:52;;;;;;;4.28;2.55;;;;;;;19.95;63.30;101874.66;5041973;28;20041;-61
2023/08/11 08:09:20;;;;;;;5.18;2.90;;;;;;;19.96;63.37;101877.13;5042194;28;20050;-61
2023/08/11 08:11:48;;;;;;;5.65;2.97;;;;;;;19.97;63.44;101867.84;5049848;28;20045;-60
2023/08/11 08:14:16;;;;;;;4.78;3.20;;;;;;;20.00;63.64;101875.53;5062027;28;20060;-60
2023/08/11 08:16:45;;;;;;;6.30;3.30;;;;;;;20.03;63.60;101871.44;5060199;28;20060;-61
2023/08/11 08:19:14;;;;;;;3.97;2.70;;;;;;;20.04;63.76;101864.91;5061702;28;20103;-61
2023/08/11 08:21:43;;;;;;;4.78;2.55;;;;;;;20.05;63.67;101856.47;5062014;28;20048;-61
2023/08/11 08:24:14;;;;;;;6.95;3.30;;;;;;;20.08;63.78;101863.31;5049828;28;20049;-61
2023/08/11 08:26:43;;;;;;;4.88;2.92;;;;;;;20.10;63.93;101861.97;5051647;28;20106;-61
2023/08/11 08:29:11;;;;;;;4.53;2.63;;;;;;;20.12;63.72;101870.72;5043481;28;20360;-61
2023/08/11 08:31:38;;;;;;;6.60;2.90;;;;;;;20.17;63.99;101866.38;5052963;28;20049;-61
2023/08/11 08:34:08;;;;;;;4.57;2.58;;;;;;;20.19;64.06;101869.66;5061424;28;20045;-60
2023/08/11 08:36:36;;;;;;;8.20;3.08;;;;;;;20.21;63.98;101878.41;5057595;28;20043;-61
2023/08/11 08:39:04;;;;;;;4.07;2.90;;;;;;;20.24;64.15;101877.91;5046296;27;20094;-62
2023/08/11 08:41:39;;;;;;;8.30;2.88;;;;;;;20.26;64.13;101875.72;5048975;28;20045;-61
2023/08/11 08:44:07;;;;;;;7.45;2.72;;;;;;;20.28;64.14;101876.28;5061878;28;20074;-62
2023/08/11 08:46:36;;;;;;;4.05;2.53;;;;;;;20.32;64.31;101875.50;5061461;28;20045;-62
2023/08/11 08:49:15;;;;;;;6.88;2.80;;;;;;;20.36;64.31;101873.91;5059949;28;20108;-61
2023/08/11 08:51:44;;;;;;;5.30;2.83;;;;;;;20.40;64.34;101869.59;5058722;28;20056;-62
2023/08/11 08:54:12;;;;;;;7.25;2.53;;;;;;;20.44;64.43;101867.16;5051041;28;20057;-62
2023/08/11 08:56:40;;;;;;;3.67;2.42;;;;;;;20.50;64.38;101871.56;5064794;28;20061;-61
2023/08/11 08:59:09;;;;;;;6.63;2.70;;;;;;;20.55;64.57;101862.59;5064760;28;20060;-62
2023/08/11 09:01:38;;;;;;;6.32;3.00;;;;;;;20.59;64.56;101860.97;5053495;28;20045;-61
2023/08/11 09:04:07;;;;;;;2.80;2.30;;;;;;;20.61;64.55;101853.34;5045975;28;20938;-61
2023/08/11 09:06:39;;;;;;;4.70;2.30;;;;;;;20.64;64.56;101861.81;5064694;28;20045;-61
2023/08/11 09:09:09;;;;;;;3.78;2.78;;;;;;;20.69;64.66;101863.75;5063214;28;20055;-61
2023/08/11 09:11:38;;;;;;;4.90;2.80;;;;;;;20.71;64.60;101856.94;5064767;28;20049;-60
2023/08/11 09:14:08;;;;;;;5.43;2.90;;;;;;;20.77;64.62;101858.63;5064601;28;20045;-61
2023/08/11 09:16:37;;;;;;;3.58;2.20;;;;;;;20.84;64.66;101861.06;5062866;28;20049;-61
2023/08/11 09:19:07;;;;;;;3.90;2.40;;;;;;;20.86;64.72;101855.34;5064227;28;20056;-62
2023/08/11 09:21:36;;;;;;;5.18;2.28;;;;;;;20.95;64.72;101862.78;5064647;28;20467;-61
2023/08/11 09:24:08;;;;;;;4.85;2.60;;;;;;;20.98;64.44;101862.25;5055877;27;20045;-61
2023/08/11 09:26:36;;;;;;;5.28;2.65;;;;;;;21.03;64.51;101865.00;5053765;28;20049;-62
2023/08/11 09:29:05;;;;;;;3.80;2.55;;;;;;;21.04;64.46;101855.72;5044448;28;20498;-61
2023/08/11 09:31:33;;;;;;;5.65;2.80;;;;;;;21.06;64.55;101855.44;5054137;28;20045;-62
2023/08/11 09:34:13;;;;;;;3.55;2.47;;;;;;;21.08;64.68;101853.25;5055464;28;20455;-61
2023/08/11 09:36:43;;;;;;;5.18;3.10;;;;;;;21.11;64.60;101856.28;5063696;27;20043;-60
2023/08/11 09:39:11;;;;;;;3.40;2.33;;;;;;;21.16;64.64;101854.66;5056444;27;20077;-61
2023/08/11 09:41:43;;;;;;;4.43;2.72;;;;;;;21.21;64.58;101850.03;5064126;28;20076;-62
2023/08/11 09:44:11;;;;;;;6.00;2.53;;;;;;;21.28;64.46;101858.00;5055159;28;20311;-61
2023/08/11 09:46:40;;;;;;;4.63;2.85;;;;;;;21.30;64.69;101847.63;5043975;28;20045;-62
2023/08/11 09:49:09;;;;;;;5.03;2.85;;;;;;;21.35;64.65;101851.19;5043902;28;20139;-62
2023/08/11 09:51:38;;;;;;;5.15;2.22;;;;;;;21.40;64.64;101850.38;5044339;28;20046;-62
2023/08/11 09:54:09;;;;;;;2.72;2.08;;;;;;;21.46;64.75;101851.22;5043504;28;20049;-62
2023/08/11 09:56:38;;;;;;;4.03;2.40;;;;;;;21.49;64.46;101851.50;5024344;28;20104;-62
2023/08/11 09:59:10;;;;;;;3.50;2.47;;;;;;;21.55;64.72;101850.41;5024101;28;20057;-62
2023/08/11 10:01:38;;;;;;;4.97;2.20;;;;;;;21.62;64.61;101855.63;5032933;28;20049;-61
2023/08/11 10:04:10;;;;;;;5.57;2.38;;;;;;;21.64;64.62;101847.97;5043649;28;20072;-62
2023/08/11 10:06:42;;;;;;;3.40;2.30;;;;;;;21.73;64.51;101855.38;5055220;28;20078;-62
2023/08/11 10:09:13;;;;;;;3.63;2.22;;;;;;;21.80;64.53;101857.84;5063589;28;20044;-61
2023/08/11 10:11:44;;;;;;;4.90;2.35;;;;;;;21.84;64.51;101856.22;5062931;28;20070;-61
2023/08/11 10:14:15;;;;;;;2.95;2.20;;;;;;;21.87;64.41;101855.66;5063904;28;20056;-62
2023/08/11 10:16:45;;;;;;;4.78;2.35;;;;;;;21.88;64.58;101851.00;5051172;28;20061;-62
2023/08/11 10:19:13;;;;;;;2.85;2.08;;;;;;;21.90;64.64;101851.56;5043195;28;20538;-62
2023/08/11 10:21:41;;;;;;;4.07;1.85;;;;;;;21.92;64.74;101850.19;5043864;28;20049;-62
2023/08/11 10:24:11;;;;;;;4.93;2.67;;;;;;;21.96;64.72;101851.28;5047203;28;20053;-61
2023/08/11 10:26:40;;;;;;;2.63;1.90;;;;;;;22.04;64.21;101849.94;5049469;28;20049;-61
2023/08/11 10:29:11;;;;;;;7.45;2.72;;;;;;;22.10;64.37;101851.59;5044105;28;20041;-62
2023/08/11 10:31:53;;;;;;;4.03;2.28;;;;;;;22.14;64.10;101846.38;5043259;28;20426;-61
2023/08/11 10:34:22;;;;;;;5.07;2.47;;;;;;;22.17;64.00;101854.03;5110985;27;20073;-61
2023/08/11 10:36:51;;;;;;;3.70;2.10;;;;;;;22.22;64.00;101854.03;5075014;27;20043;-61
2023/08/11 10:39:21;;;;;;;5.30;2.30;;;;;;;22.26;63.92;101844.19;5147656;27;20047;-61
2023/08/11 10:41:50;;;;;;;3.58;2.20;;;;;;;22.26;63.53;101841.44;5147825;27;20047;-62
2023/08/11 10:44:19;;;;;;;4.40;2.17;;;;;;;22.26;63.56;101838.69;5147647;27;20053;-62
2023/08/11 10:46:50;;;;;;;7.07;2.05;;;;;;;22.29;63.70;101843.63;5067334;27;20052;-62
2023/08/11 10:49:32;;;;;;;3.03;1.98;;;;;;;22.32;63.02;101843.06;5042856;28;20041;-62
2023/08/11 10:52:02;;;;;;;5.68;2.28;;;;;;;22.34;62.88;101846.34;5063044;28;20087;-61
2023/08/11 10:54:31;;;;;;;5.50;2.60;;;;;;;22.36;62.95;101836.78;5049598;28;20045;-61
2023/08/11 10:57:01;;;;;;;2.72;2.20;;;;;;;22.42;63.79;101843.06;5063094;28;20052;-61
2023/08/11 10:59:30;;;;;;;4.88;1.77;;;;;;;22.52;63.42;101840.31;5063421;28;20048;-61
2023/08/11 11:01:59;;;;;;;3.72;2.60;;;;;;;22.57;62.84;101831.22;5045752;28;20267;-61
2023/08/11 11:04:29;;;;;;;5.60;1.70;;;;;;;22.58;62.62;101830.94;5042834;28;20072;-61
2023/08/11 11:06:58;;;;;;;3.08;1.80;;;;;;;22.60;62.28;101836.97;5043427;28;20075;-61
2023/08/11 11:09:28;;;;;;;3.88;2.30;;;;;;;22.67;63.33;101839.41;5042931;28;20089;-61
2023/08/11 11:11:58;;;;;;;2.70;1.85;;;;;;;22.74;63.30;101835.28;5042121;28;20042;-61
2023/08/11 11:14:26;;;;;;;4.30;2.30;;;;;;;22.81;62.80;101835.00;5043010;28;20046;-62
2023/08/11 11:16:59;;;;;;;7.60;2.65;;;;;;;22.85;62.27;101841.56;5042665;28;20050;-62
2023/08/11 11:19:28;;;;;;;4.40;2.17;;;;;;;22.89;62.00;101828.94;5042623;28;20073;-62
2023/08/11 11:21:56;;;;;;;3.25;1.80;;;;;;;22.96;62.60;101834.13;5042900;28;20049;-62
2023/08/11 11:24:24;;;;;;;4.03;2.28;;;;;;;23.07;63.50;101832.16;5043177;28;20049;-61
2023/08/11 11:26:52;;;;;;;2.97;2.00;;;;;;;23.11;62.67;101839.53;5042366;28;20103;-62
2023/08/11 11:29:23;;;;;;;5.60;1.88;;;;;;;23.17;62.10;101834.84;5042700;28;20046;-61
2023/08/11 11:31:52;;;;;;;4.65;2.05;;;;;;;23.23;62.25;101828.22;5042813;28;20109;-61